Time;durP1;ratioP1;P1;durP2;ratioP2;P2;SDS_P1;SDS_P2;PMS_P1;PMS_P2;Temp;Humidity;BMP_temperature;BMP_pressure;BME280_temperature;BME280_humidity;BME280_pressure;Samples;Min_cycle;Max_cycle;Signal;HPM_P1;HPM_P2
2022/03/14 00:00:41;;;;;;;;;2.25;1.50;;;;;19.75;37.28;101354.41;5076334;27;45954;-53
2022/03/14 00:03:06;;;;;;;;;3.00;2.00;;;;;19.74;37.68;101360.59;5076468;27;45311;-47
2022/03/14 00:05:32;;;;;;;;;1.75;1.75;;;;;19.74;37.12;101364.09;5076942;27;45592;-53
2022/03/14 00:08:01;;;;;;;;;0.50;0.50;;;;;19.74;37.68;101374.59;5076103;27;45177;-54
2022/03/14 00:10:28;;;;;;;;;3.00;1.25;;;;;19.74;37.69;101385.13;5076149;27;45721;-54
2022/03/14 00:12:58;;;;;;;;;3.50;2.75;;;;;19.73;37.28;101372.88;5076285;27;45405;-52
2022/03/14 00:15:28;;;;;;;;;2.00;2.00;;;;;19.72;37.34;101383.50;5076215;27;45560;-54
2022/03/14 00:17:54;;;;;;;;;3.75;2.00;;;;;19.70;37.71;101387.94;5075935;27;46132;-52
2022/03/14 00:20:20;;;;;;;;;1.50;1.50;;;;;19.71;37.82;101394.94;5076737;27;45401;-56
2022/03/14 00:22:46;;;;;;;;;1.75;1.75;;;;;19.71;37.35;101405.44;5079838;27;45369;-54
2022/03/14 00:25:12;;;;;;;;;1.75;1.75;;;;;19.72;37.44;101409.78;5078690;28;45331;-56
2022/03/14 00:27:37;;;;;;;;;2.00;2.00;;;;;19.70;37.71;101415.09;5079901;27;45854;-49
2022/03/14 00:30:12;;;;;;;;;2.00;2.00;;;;;19.68;37.95;101416.94;5079917;27;45401;-52
2022/03/14 00:32:38;;;;;;;;;2.75;1.25;;;;;19.69;37.58;101423.91;5079973;27;45231;-52
2022/03/14 00:35:04;;;;;;;;;1.50;1.50;;;;;19.69;37.38;101429.16;5080076;27;45592;-55
2022/03/14 00:37:31;;;;;;;;;2.00;2.00;;;;;19.69;37.36;101434.41;5079514;27;45290;-52
2022/03/14 00:39:56;;;;;;;;;1.75;1.75;;;;;19.67;37.42;101433.66;5079249;27;45895;-53
2022/03/14 00:42:22;;;;;;;;;4.00;1.75;;;;;19.67;37.33;101444.19;5079458;27;45353;-49
2022/03/14 00:44:50;;;;;;;;;1.00;1.00;;;;;19.67;37.47;101441.53;5079654;27;45430;-51
2022/03/14 00:47:16;;;;;;;;;2.00;2.00;;;;;19.67;37.75;101446.81;5079125;27;46108;-54
2022/03/14 00:49:43;;;;;;;;;2.25;2.00;;;;;19.67;37.66;101454.69;5079186;27;45465;-50
2022/03/14 00:52:08;;;;;;;;;3.25;2.00;;;;;19.66;37.62;101450.34;5079607;27;45327;-49
2022/03/14 00:54:34;;;;;;;;;1.00;1.00;;;;;19.67;37.33;101456.44;5078379;27;45311;-51
2022/03/14 00:57:00;;;;;;;;;1.00;1.00;;;;;19.65;37.84;101461.78;5079044;28;46166;-52
2022/03/14 00:59:27;;;;;;;;;2.00;2.00;;;;;19.66;37.89;101471.38;5079114;27;45220;-51
2022/03/14 01:01:53;;;;;;;;;2.00;2.00;;;;;19.65;37.71;101474.06;5079256;27;45372;-48
2022/03/14 01:04:18;;;;;;;;;2.00;2.00;;;;;19.63;37.37;101477.59;5077989;27;45555;-52
2022/03/14 01:06:43;;;;;;;;;2.00;1.50;;;;;19.62;37.25;101480.31;5094844;27;51846;-53
2022/03/14 01:09:11;;;;;;;;;2.00;2.00;;;;;19.63;37.46;101493.38;5079262;27;45682;-49
2022/03/14 01:11:39;;;;;;;;;1.00;1.00;;;;;19.63;37.61;101488.13;5079335;28;45325;-52
2022/03/14 01:14:05;;;;;;;;;2.00;2.00;;;;;19.62;37.65;101496.94;5079404;27;45162;-48
2022/03/14 01:16:31;;;;;;;;;2.00;2.00;;;;;19.63;37.40;101492.53;5078427;27;45394;-49
2022/03/14 01:18:57;;;;;;;;;3.00;2.00;;;;;19.61;37.34;101500.50;5077553;27;45910;-50
2022/03/14 01:21:24;;;;;;;;;1.25;1.25;;;;;19.62;37.69;101511.88;5078920;27;45345;-50
2022/03/14 01:23:49;;;;;;;;;1.00;1.00;;;;;19.61;37.68;101510.16;5079151;27;45545;-51
2022/03/14 01:26:14;;;;;;;;;2.00;2.00;;;;;19.59;37.74;101510.22;5078670;27;45252;-50
2022/03/14 01:28:40;;;;;;;;;2.25;1.00;;;;;19.60;37.67;101518.94;5077613;28;45457;-52
2022/03/14 01:31:05;;;;;;;;;1.75;1.75;;;;;19.59;37.69;101520.75;5079098;27;45572;-48
2022/03/14 01:33:31;;;;;;;;;1.00;1.00;;;;;19.59;37.56;101526.00;5076561;28;45582;-50
2022/03/14 01:35:56;;;;;;;;;1.00;1.00;;;;;19.60;37.54;101534.72;5078355;27;47004;-54
2022/03/14 01:38:22;;;;;;;;;1.75;1.00;;;;;19.57;37.85;101534.84;5078416;27;45231;-49
2022/03/14 01:40:47;;;;;;;;;1.00;1.00;;;;;19.59;37.51;101535.66;5077240;27;45297;-50
2022/03/14 01:43:13;;;;;;;;;1.75;1.75;;;;;19.58;37.28;101532.19;5078619;27;45546;-50
2022/03/14 01:45:39;;;;;;;;;2.00;2.00;;;;;19.59;37.59;101538.28;5078538;27;46872;-55
2022/03/14 01:48:05;;;;;;;;;1.00;1.00;;;;;19.58;37.87;101539.19;5078264;27;45345;-53
2022/03/14 01:50:32;;;;;;;;;2.25;1.75;;;;;19.57;37.70;101540.09;5078462;27;45644;-55
2022/03/14 01:52:57;;;;;;;;;1.00;1.00;;;;;19.56;37.28;101541.91;5078470;27;45436;-55
2022/03/14 01:55:23;;;;;;;;;1.00;1.00;;;;;19.56;37.57;101548.94;5078164;27;45485;-55
2022/03/14 01:57:48;;;;;;;;;1.75;1.75;;;;;19.57;37.47;101553.25;5077997;27;45386;-54
2022/03/14 02:00:14;;;;;;;;;1.00;1.00;;;;;19.56;37.40;101556.81;5078269;27;45373;-51
2022/03/14 02:02:39;;;;;;;;;2.25;1.00;;;;;19.55;37.58;101541.97;5078549;27;45484;-53
2022/03/14 02:05:05;;;;;;;;;2.00;1.00;;;;;19.55;37.09;101552.47;5077877;27;45352;-53
2022/03/14 02:07:32;;;;;;;;;2.50;1.25;;;;;19.55;37.75;101552.47;5078112;27;45839;-51
2022/03/14 02:09:58;;;;;;;;;1.00;1.00;;;;;19.54;37.17;101554.25;5078232;27;45412;-49
2022/03/14 02:12:24;;;;;;;;;1.00;1.00;;;;;19.54;37.35;101548.13;5078270;27;45594;-51
2022/03/14 02:14:50;;;;;;;;;2.00;2.00;;;;;19.54;37.72;101543.72;5077699;27;45394;-52
2022/03/14 02:17:19;;;;;;;;;1.00;0.75;;;;;19.53;37.59;101549.06;5077960;27;45387;-51
2022/03/14 02:19:45;;;;;;;;;0.50;0.50;;;;;19.54;37.25;101551.59;5078035;27;45442;-49
2022/03/14 02:22:13;;;;;;;;;1.75;1.75;;;;;19.54;37.83;101554.25;5078423;27;45480;-53
2022/03/14 02:24:44;;;;;;;;;0.00;0.00;;;;;19.53;37.54;101559.56;5077953;27;46232;-52
2022/03/14 02:27:11;;;;;;;;;1.25;1.25;;;;;19.52;37.64;101558.69;5078242;27;45406;-55
2022/03/14 02:29:39;;;;;;;;;2.50;1.00;;;;;19.52;37.32;101560.47;5077905;27;45239;-52
2022/03/14 02:32:05;;;;;;;;;1.00;1.00;;;;;19.53;37.70;101567.47;5076771;28;45194;-55
2022/03/14 02:34:30;;;;;;;;;1.00;1.00;;;;;19.51;37.74;101561.41;5077476;27;46072;-54
2022/03/14 02:36:56;;;;;;;;;1.00;1.00;;;;;19.52;37.86;101566.59;5077623;27;45420;-50
2022/03/14 02:39:22;;;;;;;;;1.25;1.00;;;;;19.52;37.63;101568.38;5076472;28;45410;-53
2022/03/14 02:41:47;;;;;;;;;1.00;1.00;;;;;19.51;37.33;101569.28;5077894;27;45560;-53
2022/03/14 02:44:13;;;;;;;;;1.00;1.00;;;;;19.50;37.59;101580.72;5077401;27;46938;-50
2022/03/14 02:46:40;;;;;;;;;3.25;1.00;;;;;19.51;37.47;101572.78;5077361;27;45450;-55
2022/03/14 02:49:09;;;;;;;;;0.00;0.00;;;;;19.51;37.37;101587.69;5077628;27;45421;-53
2022/03/14 02:51:38;;;;;;;;;3.50;2.50;;;;;19.49;37.34;101586.88;5077713;27;45762;-53
2022/03/14 02:54:05;;;;;;;;;1.00;1.00;;;;;19.50;37.37;101604.38;5077207;27;47025;-54
2022/03/14 02:56:40;;;;;;;;;2.00;2.00;;;;;19.51;37.66;101608.72;5077158;27;45346;-53
2022/03/14 02:59:07;;;;;;;;;1.00;0.00;;;;;19.49;37.41;101606.16;5077459;27;45322;-47
2022/03/14 03:01:33;;;;;;;;;0.00;0.00;;;;;19.48;37.46;101620.22;5077518;27;45314;-51
2022/03/14 03:03:59;;;;;;;;;0.50;0.50;;;;;19.48;37.73;101612.34;5077171;27;45389;-54
2022/03/14 03:06:24;;;;;;;;;3.00;2.00;;;;;19.47;37.78;101626.41;5075789;28;46156;-51
2022/03/14 03:08:52;;;;;;;;;1.50;1.00;;;;;19.48;37.53;101636.00;5077260;27;45235;-56
2022/03/14 03:11:18;;;;;;;;;3.25;0.50;;;;;19.47;37.62;101629.03;5077247;27;45361;-53
2022/03/14 03:13:46;;;;;;;;;2.75;1.00;;;;;19.47;37.42;101644.78;5077111;27;46196;-55
2022/03/14 03:16:16;;;;;;;;;2.50;1.50;;;;;19.46;37.45;101646.56;5076978;27;45435;-56
2022/03/14 03:18:43;;;;;;;;;3.50;1.25;;;;;19.46;37.48;101654.44;5077288;27;45440;-53
2022/03/14 03:21:09;;;;;;;;;1.00;1.00;;;;;19.46;37.36;101661.47;5077185;27;45291;-53
2022/03/14 03:23:35;;;;;;;;;2.00;2.00;;;;;19.45;37.60;101665.03;5076653;27;46148;-53
2022/03/14 03:26:04;;;;;;;;;0.00;0.00;;;;;19.45;37.25;101672.91;5076627;27;45968;-58
2022/03/14 03:28:36;;;;;;;;;1.00;1.00;;;;;19.45;37.43;101675.53;5077009;27;45249;-50
2022/03/14 03:31:07;;;;;;;;;3.00;2.00;;;;;19.44;37.42;101672.06;5077158;27;45456;-53
2022/03/14 03:33:33;;;;;;;;;1.25;1.25;;;;;19.42;37.25;101673.91;5075290;27;46288;-49
2022/03/14 03:35:58;;;;;;;;;1.25;0.75;;;;;19.44;37.57;101677.31;5076643;27;45389;-52
2022/03/14 03:38:24;;;;;;;;;1.00;1.00;;;;;19.43;37.19;101683.50;5076651;28;45401;-50
2022/03/14 03:40:49;;;;;;;;;1.00;1.00;;;;;19.43;37.38;101688.75;5076944;27;45432;-55
2022/03/14 03:43:15;;;;;;;;;4.00;1.00;;;;;19.42;37.72;101699.31;5076857;27;45495;-53
2022/03/14 03:45:41;;;;;;;;;0.50;0.50;;;;;19.42;37.68;101709.81;5076494;27;45377;-54
2022/03/14 03:48:06;;;;;;;;;1.75;1.75;;;;;19.41;37.09;101713.38;5076607;27;45227;-54
2022/03/14 03:50:32;;;;;;;;;1.25;0.25;;;;;19.41;37.65;101711.59;5076794;27;45418;-56
2022/03/14 03:52:57;;;;;;;;;1.00;1.00;;;;;19.39;37.80;101710.81;5076158;27;47874;-56
2022/03/14 03:55:22;;;;;;;;;1.00;1.00;;;;;19.40;37.30;101711.69;5077142;27;45248;-53
2022/03/14 03:57:48;;;;;;;;;2.75;0.25;;;;;19.40;37.68;101711.69;5080320;27;45428;-47
2022/03/14 04:00:14;;;;;;;;;1.00;1.00;;;;;19.39;37.59;101713.44;5080464;27;45174;-54
2022/03/14 04:02:41;;;;;;;;;0.75;0.75;;;;;19.38;37.62;101724.84;5079783;27;47141;-53
2022/03/14 04:05:07;;;;;;;;;1.75;0.50;;;;;19.38;37.62;101724.84;5080031;27;45746;-55
2022/03/14 04:07:34;;;;;;;;;2.00;2.00;;;;;19.38;37.42;101732.75;5080148;27;45314;-55
2022/03/14 04:09:59;;;;;;;;;1.50;1.00;;;;;19.37;37.32;101736.28;5080117;27;45318;-55
2022/03/14 04:12:26;;;;;;;;;0.00;0.00;;;;;19.39;37.51;101741.50;5079747;27;46286;-52
2022/03/14 04:14:53;;;;;;;;;2.75;1.00;;;;;19.37;37.37;101748.59;5079605;27;45551;-55
2022/03/14 04:17:19;;;;;;;;;1.00;1.00;;;;;19.36;37.44;101742.44;5080136;27;45476;-56
2022/03/14 04:19:45;;;;;;;;;4.25;1.25;;;;;19.36;37.71;101750.34;5080297;27;45622;-52
2022/03/14 04:22:15;;;;;;;;;1.00;1.00;;;;;19.36;37.26;101752.13;5079652;27;46111;-53
2022/03/14 04:24:41;;;;;;;;;1.00;1.00;;;;;19.36;37.54;101760.00;5079435;27;45355;-55
2022/03/14 04:27:06;;;;;;;;;1.00;1.00;;;;;19.36;37.41;101760.00;5080024;27;45437;-52
2022/03/14 04:29:32;;;;;;;;;1.00;1.00;;;;;19.35;37.60;101756.50;5079956;27;45211;-57
2022/03/14 04:31:57;;;;;;;;;1.00;0.00;;;;;19.35;37.24;101758.28;5078250;27;47750;-53
2022/03/14 04:34:22;;;;;;;;;1.00;1.00;;;;;19.34;37.27;101770.59;5079441;27;45399;-57
2022/03/14 04:36:50;;;;;;;;;1.00;1.00;;;;;19.35;37.26;101768.81;5080010;27;45357;-55
2022/03/14 04:39:16;;;;;;;;;1.00;1.00;;;;;19.34;37.42;101772.34;5080257;27;45636;-55
2022/03/14 04:41:43;;;;;;;;;1.00;1.00;;;;;19.33;37.36;101779.38;5079345;27;46385;-54
2022/03/14 04:44:08;;;;;;;;;2.00;2.00;;;;;19.33;37.48;101784.63;5079306;27;45355;-54
2022/03/14 04:46:34;;;;;;;;;2.50;1.00;;;;;19.33;37.05;101789.03;5079188;28;45342;-53
2022/03/14 04:49:00;;;;;;;;;1.75;1.75;;;;;19.31;37.37;101791.72;5079417;27;45370;-55
2022/03/14 04:51:25;;;;;;;;;0.75;0.75;;;;;19.31;37.04;101800.44;5079060;27;46112;-57
2022/03/14 04:53:51;;;;;;;;;1.00;1.00;;;;;19.29;37.55;101790.91;5079449;27;45733;-54
2022/03/14 04:56:16;;;;;;;;;2.00;2.00;;;;;19.29;37.29;101804.03;5078136;28;45766;-53
2022/03/14 04:58:41;;;;;;;;;1.00;0.75;;;;;19.28;37.43;101810.22;5079398;27;45599;-56
2022/03/14 05:01:07;;;;;;;;;1.50;1.50;;;;;19.28;37.31;101816.34;5078900;27;46520;-56
2022/03/14 05:03:34;;;;;;;;;1.00;1.00;;;;;19.28;37.21;101815.47;5079046;27;45281;-53
2022/03/14 05:05:59;;;;;;;;;0.00;0.00;;;;;19.27;37.04;101816.38;5077889;27;45381;-55
2022/03/14 05:08:24;;;;;;;;;4.00;1.00;;;;;19.28;37.11;101823.34;5077974;27;45408;-52
2022/03/14 05:10:50;;;;;;;;;2.75;2.00;;;;;19.26;37.28;101814.66;5078945;27;52168;-52
2022/03/14 05:13:15;;;;;;;;;1.25;1.25;;;;;19.27;36.91;101819.00;5078626;27;45319;-51
2022/03/14 05:15:41;;;;;;;;;1.00;1.00;;;;;19.26;37.36;101825.16;5078825;27;45197;-54
2022/03/14 05:18:06;;;;;;;;;2.00;1.00;;;;;19.26;37.56;101835.69;5078929;27;45296;-54
2022/03/14 05:20:32;;;;;;;;;2.00;1.00;;;;;19.25;37.25;101841.84;5078643;27;46422;-52
2022/03/14 05:22:57;;;;;;;;;1.00;1.00;;;;;19.26;37.12;101841.81;5078791;27;45425;-55
2022/03/14 05:25:23;;;;;;;;;1.75;1.75;;;;;19.26;37.15;101840.94;5078998;27;45298;-55
2022/03/14 05:27:49;;;;;;;;;1.25;1.00;;;;;19.25;37.16;101836.59;5079366;27;45460;-56
2022/03/14 05:30:15;;;;;;;;;1.00;1.00;;;;;19.26;37.24;101846.19;5078521;28;45597;-56
2022/03/14 05:32:42;;;;;;;;;2.25;1.75;;;;;19.24;37.06;101837.50;5078471;28;45855;-54
2022/03/14 05:35:09;;;;;;;;;1.50;1.25;;;;;19.25;37.21;101847.97;5077351;28;45302;-53
2022/03/14 05:37:34;;;;;;;;;1.75;1.75;;;;;19.24;37.14;101842.75;5078786;27;45402;-51
2022/03/14 05:40:00;;;;;;;;;1.00;0.00;;;;;19.25;37.26;101852.34;5078339;27;46173;-51
2022/03/14 05:42:26;;;;;;;;;1.00;1.00;;;;;19.24;37.46;101848.88;5078282;28;45266;-52
2022/03/14 05:44:53;;;;;;;;;2.00;2.00;;;;;19.24;37.44;101855.91;5078852;27;45443;-55
2022/03/14 05:47:19;;;;;;;;;2.25;1.00;;;;;19.25;37.16;101865.50;5078586;28;45324;-55
2022/03/14 05:49:45;;;;;;;;;1.50;1.00;;;;;19.24;37.36;101866.41;5078191;27;46329;-49
2022/03/14 05:52:10;;;;;;;;;1.50;1.00;;;;;19.23;37.14;101860.31;5078188;27;45500;-51
2022/03/14 05:54:36;;;;;;;;;3.00;0.75;;;;;19.23;37.30;101867.34;5078324;27;45419;-54
2022/03/14 05:57:02;;;;;;;;;0.75;0.75;;;;;19.21;37.31;101872.63;5078526;27;45239;-55
2022/03/14 05:59:28;;;;;;;;;2.75;2.00;;;;;19.22;36.92;101881.41;5078116;27;46081;-56
2022/03/14 06:01:53;;;;;;;;;1.00;1.00;;;;;19.22;37.51;101881.41;5077163;28;45250;-55
2022/03/14 06:04:18;;;;;;;;;1.00;1.00;;;;;19.21;37.06;101879.69;5078300;27;45253;-57
2022/03/14 06:06:44;;;;;;;;;1.00;1.00;;;;;19.21;37.26;101882.31;5078463;27;45922;-55
2022/03/14 06:09:10;;;;;;;;;2.00;1.00;;;;;19.19;37.43;101886.75;5078031;27;45260;-52
2022/03/14 06:11:38;;;;;;;;;1.00;1.00;;;;;19.20;37.02;101888.47;5077875;27;45336;-51
2022/03/14 06:14:03;;;;;;;;;4.00;1.00;;;;;19.20;37.12;101893.72;5078007;27;45349;-55
2022/03/14 06:16:29;;;;;;;;;2.75;2.00;;;;;19.19;37.33;101889.38;5077859;27;45520;-56
2022/03/14 06:18:54;;;;;;;;;4.00;2.00;;;;;19.19;37.34;101892.00;5077510;27;45299;-55
2022/03/14 06:21:19;;;;;;;;;1.75;1.00;;;;;19.19;37.26;101895.47;5077741;27;45317;-54
2022/03/14 06:23:45;;;;;;;;;3.00;2.25;;;;;19.20;36.99;101904.25;5077993;27;45267;-54
2022/03/14 06:26:10;;;;;;;;;3.75;1.75;;;;;19.19;37.36;101902.50;5078048;27;45645;-56
2022/03/14 06:28:36;;;;;;;;;1.50;1.00;;;;;19.19;37.40;101907.78;5076127;28;47553;-53
2022/03/14 06:31:01;;;;;;;;;1.00;1.00;;;;;19.19;37.15;101915.66;5077685;27;45265;-52
2022/03/14 06:33:26;;;;;;;;;2.00;2.00;;;;;19.19;37.07;101926.16;5077826;27;45302;-53
2022/03/14 06:35:52;;;;;;;;;2.00;2.00;;;;;19.16;37.38;101925.34;5078122;27;45499;-51
2022/03/14 06:38:17;;;;;;;;;2.00;1.00;;;;;19.18;37.14;101934.97;5077395;27;46128;-50
2022/03/14 06:40:43;;;;;;;;;2.00;2.00;;;;;19.18;37.36;101942.84;5077459;27;45179;-54
2022/03/14 06:43:11;;;;;;;;;1.25;1.00;;;;;19.18;36.86;101948.97;5076262;28;45408;-54
2022/03/14 06:45:39;;;;;;;;;3.00;1.00;;;;;19.18;37.00;101955.97;5077619;27;45450;-53
2022/03/14 06:48:05;;;;;;;;;2.00;2.00;;;;;19.16;37.07;101956.88;5077290;27;46717;-51
2022/03/14 06:50:31;;;;;;;;;1.25;1.25;;;;;19.18;37.23;101974.38;5077299;27;45919;-48
2022/03/14 06:52:58;;;;;;;;;2.00;1.00;;;;;19.18;37.09;101977.00;5076124;27;45344;-48
2022/03/14 06:55:24;;;;;;;;;1.75;1.50;;;;;19.18;37.14;101984.88;5077925;27;45217;-54
2022/03/14 06:57:50;;;;;;;;;1.00;1.00;;;;;19.19;36.92;101986.63;5077257;27;47157;-48
2022/03/14 07:00:16;;;;;;;;;2.00;1.25;;;;;19.19;37.25;101989.25;5077268;27;45817;-53
2022/03/14 07:02:42;;;;;;;;;2.00;2.00;;;;;19.19;36.95;101987.47;5076037;28;45340;-52
2022/03/14 07:05:13;;;;;;;;;3.00;1.00;;;;;19.19;37.29;101997.13;5077220;27;45631;-52
2022/03/14 07:07:38;;;;;;;;;3.25;2.25;;;;;19.18;37.13;101995.41;5076829;27;47321;-54
2022/03/14 07:10:04;;;;;;;;;1.50;1.50;;;;;19.18;37.53;102001.53;5076923;27;45443;-50
2022/03/14 07:12:30;;;;;;;;;2.50;2.00;;;;;19.19;37.05;102002.38;5077179;27;45340;-56
2022/03/14 07:14:56;;;;;;;;;2.00;2.00;;;;;19.18;36.99;102017.31;5077277;27;45594;-49
2022/03/14 07:17:22;;;;;;;;;1.50;1.50;;;;;19.18;37.39;102019.94;5075534;28;46012;-47
2022/03/14 07:19:47;;;;;;;;;3.50;2.00;;;;;19.18;37.53;102034.81;5076899;27;45503;-49
2022/03/14 07:22:19;;;;;;;;;3.75;1.50;;;;;19.18;37.41;102030.44;5077056;28;45339;-50
2022/03/14 07:24:45;;;;;;;;;2.00;2.00;;;;;19.19;37.53;102033.91;5077123;27;45270;-48
2022/03/14 07:27:12;;;;;;;;;2.50;2.50;;;;;19.19;37.48;102031.28;5076789;27;46156;-51
2022/03/14 07:29:38;;;;;;;;;2.25;2.25;;;;;19.18;36.92;102035.69;5074773;28;45991;-51
2022/03/14 07:32:03;;;;;;;;;3.00;2.00;;;;;19.18;37.34;102040.09;5076613;27;45454;-56
2022/03/14 07:34:31;;;;;;;;;3.00;1.50;;;;;19.18;37.08;102038.34;5077286;27;45744;-52
2022/03/14 07:36:56;;;;;;;;;2.00;2.00;;;;;19.19;37.47;102047.06;5076937;27;46432;-56
2022/03/14 07:39:22;;;;;;;;;2.00;2.00;;;;;19.18;36.92;102043.59;5076637;27;45351;-55
2022/03/14 07:41:47;;;;;;;;;2.00;1.25;;;;;19.16;36.94;102059.38;5076701;27;45469;-52
2022/03/14 07:44:13;;;;;;;;;3.00;2.50;;;;;19.18;37.07;102069.00;5076933;27;45590;-43
2022/03/14 07:46:38;;;;;;;;;3.00;2.00;;;;;19.18;37.34;102069.88;5076563;27;45656;-49
2022/03/14 07:49:03;;;;;;;;;3.00;3.00;;;;;19.16;37.26;102077.78;5075260;27;45320;-53
2022/03/14 07:51:30;;;;;;;;;3.50;1.75;;;;;19.18;36.89;102075.13;5076911;27;45469;-53
2022/03/14 07:53:55;;;;;;;;;2.00;2.00;;;;;19.18;36.91;102084.75;5077156;27;45278;-51
2022/03/14 07:56:21;;;;;;;;;3.50;2.00;;;;;19.16;37.28;102085.66;5076393;27;45486;-49
2022/03/14 07:58:47;;;;;;;;;3.00;2.25;;;;;19.15;37.08;102089.19;5075084;28;45355;-52
2022/03/14 08:01:12;;;;;;;;;1.00;1.00;;;;;19.18;37.16;102100.53;5075304;28;45461;-54
2022/03/14 08:03:37;;;;;;;;;3.50;2.00;;;;;19.18;37.22;102105.78;5076639;27;45416;-52
2022/03/14 08:06:07;;;;;;;;;3.00;3.00;;;;;19.19;36.96;102097.00;5076091;27;45417;-49
2022/03/14 08:08:33;;;;;;;;;2.75;2.75;;;;;19.18;37.00;102095.28;5076075;27;45369;-49
2022/03/14 08:11:01;;;;;;;;;3.25;3.25;;;;;19.18;37.11;102095.28;5075375;28;45221;-54
2022/03/14 08:13:27;;;;;;;;;2.00;2.00;;;;;19.19;37.06;102102.25;5076661;27;45430;-48
2022/03/14 08:15:53;;;;;;;;;3.00;3.00;;;;;19.18;37.29;102100.53;5075955;27;45531;-50
2022/03/14 08:18:18;;;;;;;;;2.00;2.00;;;;;19.19;37.19;102097.84;5076042;27;45392;-54
2022/03/14 08:20:43;;;;;;;;;3.25;3.25;;;;;19.20;37.14;102093.47;5076298;27;45365;-50
2022/03/14 08:23:09;;;;;;;;;2.75;2.00;;;;;19.21;37.15;102101.28;5076414;27;45338;-53
2022/03/14 08:25:36;;;;;;;;;4.00;2.00;;;;;19.21;37.37;102110.97;5075891;27;46512;-56
2022/03/14 08:28:02;;;;;;;;;4.25;3.00;;;;;19.21;37.37;102110.97;5074614;27;45328;-45
2022/03/14 08:30:28;;;;;;;;;3.50;2.75;;;;;19.21;37.48;102116.22;5075059;27;45279;-56
2022/03/14 08:32:56;;;;;;;;;2.50;2.50;;;;;19.21;37.26;102118.84;5076188;27;45223;-48
2022/03/14 08:35:21;;;;;;;;;3.75;3.75;;;;;19.21;37.32;102121.47;5075920;27;46502;-51
2022/03/14 08:37:50;;;;;;;;;6.25;3.00;;;;;19.22;37.30;102133.72;5074624;28;45355;-51
2022/03/14 08:40:20;;;;;;;;;2.75;2.00;;;;;19.21;37.59;102124.94;5075838;28;45419;-54
2022/03/14 08:42:46;;;;;;;;;3.50;3.50;;;;;19.22;37.21;102136.34;5078604;27;45367;-52
2022/03/14 08:45:12;;;;;;;;;3.25;3.00;;;;;19.21;37.25;102139.88;5079168;27;46258;-47
2022/03/14 08:47:38;;;;;;;;;5.00;2.00;;;;;19.22;37.46;102136.34;5077908;27;45395;-50
2022/03/14 08:50:06;;;;;;;;;2.00;2.00;;;;;19.23;37.64;102141.53;5079451;27;45374;-54
2022/03/14 08:52:31;;;;;;;;;2.50;2.25;;;;;19.25;37.59;102144.13;5079832;27;45329;-51
2022/03/14 08:54:57;;;;;;;;;3.75;3.50;;;;;19.24;37.57;102152.91;5078945;27;47194;-53
2022/03/14 08:57:23;;;;;;;;;5.00;2.00;;;;;19.24;37.69;102153.78;5079211;27;45354;-47
2022/03/14 08:59:49;;;;;;;;;3.25;3.00;;;;;19.25;37.59;102158.13;5077954;27;45241;-52
2022/03/14 09:02:14;;;;;;;;;4.50;3.00;;;;;19.26;37.51;102153.72;5079247;28;45363;-52
2022/03/14 09:04:40;;;;;;;;;5.75;3.00;;;;;19.28;37.68;102162.44;5078955;27;45343;-49
2022/03/14 09:07:06;;;;;;;;;2.00;2.00;;;;;19.28;37.67;102165.06;5079003;27;45469;-52
2022/03/14 09:09:31;;;;;;;;;3.00;3.00;;;;;19.28;37.77;102154.53;5079334;27;45426;-50
2022/03/14 09:11:58;;;;;;;;;5.75;3.00;;;;;19.30;37.53;102158.00;5079171;27;45210;-51
2022/03/14 09:14:23;;;;;;;;;6.00;4.25;;;;;19.29;37.69;102157.13;5078592;27;47145;-53
2022/03/14 09:16:48;;;;;;;;;5.00;3.00;;;;;19.29;37.49;102161.53;5078923;27;45434;-51
2022/03/14 09:19:14;;;;;;;;;5.00;3.00;;;;;19.29;37.28;102159.75;5079008;27;45325;-52
2022/03/14 09:21:40;;;;;;;;;7.75;3.75;;;;;19.29;37.69;102166.78;5078937;27;45593;-52
2022/03/14 09:24:06;;;;;;;;;2.50;2.50;;;;;19.30;37.30;102164.09;5076317;27;47138;-51
2022/03/14 09:26:32;;;;;;;;;5.00;4.00;;;;;19.29;37.94;102166.78;5078852;27;45357;-47
2022/03/14 09:28:59;;;;;;;;;3.00;3.00;;;;;19.29;37.71;102175.53;5078905;27;45527;-49
2022/03/14 09:31:25;;;;;;;;;4.00;2.50;;;;;19.29;37.67;102178.16;5079019;27;45715;-49
2022/03/14 09:33:51;;;;;;;;;6.50;3.00;;;;;19.29;37.53;102177.31;5077270;28;46361;-60
2022/03/14 09:36:16;;;;;;;;;5.75;4.50;;;;;19.29;37.60;102178.16;5078535;27;46089;-54
2022/03/14 09:38:43;;;;;;;;;4.75;4.25;;;;;19.29;37.70;102182.56;5078611;27;45242;-48
2022/03/14 09:41:08;;;;;;;;;2.00;2.00;;;;;19.30;37.67;102189.53;5078843;27;45536;-47
2022/03/14 09:43:39;;;;;;;;;2.25;2.25;;;;;19.30;37.58;102179.88;5078598;28;45509;-45
2022/03/14 09:46:06;;;;;;;;;3.00;3.00;;;;;19.29;37.62;102172.91;5078866;27;45232;-47
2022/03/14 09:48:39;;;;;;;;;3.00;3.00;;;;;19.29;37.14;102177.31;5078905;27;45456;-50
2022/03/14 09:51:06;;;;;;;;;3.00;3.00;;;;;19.29;37.20;102179.94;5077766;28;45472;-44
2022/03/14 09:53:35;;;;;;;;;4.25;4.00;;;;;19.30;37.51;102189.53;5077621;27;46124;-47
2022/03/14 09:56:01;;;;;;;;;2.75;2.50;;;;;19.29;37.42;102185.19;5078572;28;45432;-49
2022/03/14 09:58:27;;;;;;;;;6.00;2.25;;;;;19.30;37.50;102193.03;5078399;27;45311;-47
2022/03/14 10:00:53;;;;;;;;;5.00;3.00;;;;;19.31;37.29;102188.63;5078439;27;45485;-49
2022/03/14 10:03:20;;;;;;;;;5.00;3.25;;;;;19.30;37.38;102189.53;5078177;27;46094;-49
2022/03/14 10:05:46;;;;;;;;;2.25;2.25;;;;;19.31;37.28;102196.53;5078002;27;45231;-50
2022/03/14 10:08:12;;;;;;;;;3.25;2.00;;;;;19.31;37.59;102201.78;5078404;27;45866;-52
2022/03/14 10:10:39;;;;;;;;;4.00;2.75;;;;;19.31;37.07;102197.38;5076873;27;45406;-52
2022/03/14 10:13:05;;;;;;;;;4.50;3.00;;;;;19.30;37.31;102189.53;5078008;27;45482;-50
2022/03/14 10:15:32;;;;;;;;;3.00;3.00;;;;;19.31;37.10;102188.63;5076505;28;45929;-51
2022/03/14 10:17:58;;;;;;;;;8.00;3.50;;;;;19.32;37.45;102190.38;5078052;27;45377;-53
2022/03/14 10:20:25;;;;;;;;;4.00;4.00;;;;;19.31;37.13;102181.59;5078169;27;45534;-47
2022/03/14 10:22:51;;;;;;;;;4.75;4.75;;;;;19.31;37.32;102191.28;5076447;28;47867;-49
2022/03/14 10:25:19;;;;;;;;;1.00;1.00;;;;;19.31;37.09;102197.38;5077929;27;45909;-48
2022/03/14 10:27:54;;;;;;;;;4.75;3.75;;;;;19.32;37.13;102195.63;5077830;28;45267;-49
2022/03/14 10:30:32;;;;;;;;;3.00;3.00;;;;;19.33;37.42;102196.47;5077889;27;45267;-52
2022/03/14 10:33:23;;;;;;;;;4.00;4.00;;;;;19.30;36.92;102193.03;5077667;27;46345;-52
2022/03/14 10:35:48;;;;;;;;;4.00;3.25;;;;;19.31;37.45;102201.78;5093221;27;45398;-55
2022/03/14 10:38:16;;;;;;;;;3.75;3.75;;;;;19.33;37.00;102205.25;5076534;28;45387;-55
2022/03/14 10:40:43;;;;;;;;;4.25;3.00;;;;;19.32;37.14;102200.88;5077831;27;45370;-50
2022/03/14 10:43:35;;;;;;;;;3.25;2.00;;;;;19.31;36.94;102201.78;5077527;27;45497;-49
2022/03/14 10:46:01;;;;;;;;;2.25;2.25;;;;;19.31;37.26;102202.63;5077680;27;45354;-46
2022/03/14 10:48:36;;;;;;;;;2.00;2.00;;;;;19.31;37.10;102199.16;5077506;27;45303;-47
2022/03/14 10:51:04;;;;;;;;;3.50;3.00;;;;;19.33;36.98;102197.34;5076434;28;45612;-47
2022/03/14 10:53:29;;;;;;;;;2.50;2.50;;;;;19.34;37.13;102200.81;5077278;27;47393;-45
2022/03/14 10:55:59;;;;;;;;;7.00;4.75;;;;;19.34;37.13;102201.72;5077156;28;45169;-53
2022/03/14 10:58:30;;;;;;;;;3.50;2.25;;;;;19.34;37.05;102201.72;5077351;27;45339;-48
2022/03/14 11:00:58;;;;;;;;;2.50;2.50;;;;;19.34;37.18;102198.19;5077600;27;45231;-44
2022/03/14 11:03:30;;;;;;;;;3.50;3.50;;;;;19.33;37.27;102197.34;5077172;28;46733;-52
2022/03/14 11:06:01;;;;;;;;;2.00;1.00;;;;;19.33;37.33;102197.34;5077175;28;45270;-51
2022/03/14 11:08:37;;;;;;;;;2.25;2.25;;;;;19.34;37.07;102206.97;5077436;27;45250;-49
2022/03/14 11:11:08;;;;;;;;;2.50;2.50;;;;;19.34;37.27;102201.72;5075960;28;45400;-45
2022/03/14 11:13:44;;;;;;;;;4.75;4.75;;;;;19.34;37.17;102201.72;5076955;27;46492;-50
2022/03/14 11:16:27;;;;;;;;;3.25;3.25;;;;;19.34;37.14;102201.72;5076847;28;45291;-45
2022/03/14 11:18:53;;;;;;;;;3.25;1.50;;;;;19.35;37.14;102200.78;5077003;27;45540;-53
2022/03/14 11:21:24;;;;;;;;;4.00;2.00;;;;;19.34;37.07;102196.44;5077273;27;45584;-47